Time;durP1;ratioP1;P1;durP2;ratioP2;P2;SDS_P1;SDS_P2;PMS_P1;PMS_P2;Temp;Humidity;BMP_temperature;BMP_pressure;BME280_temperature;BME280_humidity;BME280_pressure;Samples;Min_cycle;Max_cycle;Signal;HPM_P1;HPM_P2
2022/04/15 00:01:24;;;;;;;30.83;15.10;;;18.50;11.40;;;;;;5072481;28;20033;-40
2022/04/15 00:03:51;;;;;;;23.38;13.75;;;18.40;11.30;;;;;;5066172;28;20062;-40
2022/04/15 00:06:17;;;;;;;25.50;15.32;;;18.40;11.50;;;;;;5052509;28;20505;-40
2022/04/15 00:08:43;;;;;;;25.80;14.48;;;18.40;11.30;;;;;;5054977;28;20048;-40
2022/04/15 00:11:09;;;;;;;27.23;15.80;;;18.40;11.70;;;;;;5072668;28;20044;-40
2022/04/15 00:13:35;;;;;;;25.67;15.70;;;18.40;11.30;;;;;;5068018;28;20025;-40
2022/04/15 00:16:03;;;;;;;25.38;15.27;;;18.40;11.30;;;;;;5052712;28;20021;-40
2022/04/15 00:18:29;;;;;;;23.45;13.77;;;18.40;11.60;;;;;;5050478;28;20108;-40
2022/04/15 00:20:55;;;;;;;24.27;14.43;;;18.40;11.70;;;;;;5052359;28;20171;-40
2022/04/15 00:23:22;;;;;;;23.40;13.60;;;18.40;12.10;;;;;;5051740;28;20048;-40
2022/04/15 00:25:51;;;;;;;23.63;14.57;;;18.40;12.30;;;;;;5072662;28;20114;-40
2022/04/15 00:28:18;;;;;;;24.55;15.05;;;18.30;12.30;;;;;;5053695;28;20103;-40
2022/04/15 00:30:44;;;;;;;25.42;14.73;;;18.30;12.50;;;;;;5051811;28;20036;-40
2022/04/15 00:33:10;;;;;;;22.67;14.10;;;18.30;12.30;;;;;;5048469;28;20421;-40
2022/04/15 00:35:36;;;;;;;23.02;15.00;;;18.20;12.60;;;;;;5072170;28;20093;-40
2022/04/15 00:38:02;;;;;;;27.38;15.00;;;18.20;12.50;;;;;;5043220;28;20034;-40
2022/04/15 00:40:28;;;;;;;24.08;14.52;;;18.20;12.50;;;;;;5032110;28;20060;-40
2022/04/15 00:42:53;;;;;;;22.98;14.40;;;18.10;12.70;;;;;;5057290;28;20094;-39
2022/04/15 00:45:19;;;;;;;23.65;13.48;;;18.10;12.80;;;;;;5072058;28;20051;-40
2022/04/15 00:47:51;;;;;;;25.80;14.27;;;18.10;12.70;;;;;;5059024;28;20036;-40
2022/04/15 00:50:22;;;;;;;28.50;14.68;;;18.10;12.70;;;;;;5052201;28;20466;-40
2022/04/15 00:52:49;;;;;;;20.45;14.02;;;18.10;13.00;;;;;;5051424;28;20053;-40
2022/04/15 00:55:16;;;;;;;21.55;14.23;;;18.10;13.00;;;;;;5055092;28;20371;-40
2022/04/15 00:57:50;;;;;;;25.90;14.75;;;18.00;13.00;;;;;;5061440;28;20063;-40
2022/04/15 01:00:17;;;;;;;21.63;14.60;;;17.90;13.10;;;;;;5070394;28;20060;-39
2022/04/15 01:02:44;;;;;;;26.33;14.38;;;18.00;13.10;;;;;;5059235;28;20467;-40
2022/04/15 01:05:11;;;;;;;22.33;13.68;;;17.90;13.40;;;;;;5051802;28;20021;-40
2022/04/15 01:07:40;;;;;;;25.05;15.35;;;17.90;13.60;;;;;;5063365;28;20090;-39
2022/04/15 01:10:10;;;;;;;22.85;14.73;;;17.90;13.80;;;;;;5075038;28;20021;-39
2022/04/15 01:12:38;;;;;;;28.05;14.73;;;17.90;13.90;;;;;;5045491;28;20067;-39
2022/04/15 01:15:14;;;;;;;23.83;14.10;;;17.80;13.80;;;;;;5054787;28;20025;-39
2022/04/15 01:17:40;;;;;;;20.45;13.77;;;17.80;14.00;;;;;;5053800;28;20028;-39
2022/04/15 01:20:08;;;;;;;27.05;14.35;;;17.80;13.90;;;;;;5054578;28;20091;-39
2022/04/15 01:22:38;;;;;;;24.95;14.75;;;17.70;14.20;;;;;;5053965;28;20036;-40
2022/04/15 01:25:08;;;;;;;22.38;13.43;;;17.80;14.30;;;;;;5054816;28;20024;-39
2022/04/15 01:27:39;;;;;;;26.67;13.52;;;17.70;14.40;;;;;;5061993;28;20059;-39
2022/04/15 01:30:09;;;;;;;25.42;14.63;;;17.70;14.60;;;;;;5065291;28;20040;-39
2022/04/15 01:32:35;;;;;;;24.80;14.40;;;17.60;14.60;;;;;;5053736;28;20493;-39
2022/04/15 01:35:01;;;;;;;23.48;14.68;;;17.60;14.70;;;;;;5054376;28;20116;-39
2022/04/15 01:37:30;;;;;;;22.70;13.52;;;17.50;14.90;;;;;;5053996;28;20116;-39
2022/04/15 01:39:56;;;;;;;22.75;13.85;;;17.50;15.10;;;;;;5054520;28;20036;-39
2022/04/15 01:42:23;;;;;;;22.65;13.13;;;17.50;15.10;;;;;;5053586;28;20048;-40
2022/04/15 01:44:49;;;;;;;23.67;14.13;;;17.50;15.00;;;;;;5054525;28;20025;-39
2022/04/15 01:47:16;;;;;;;22.10;13.27;;;17.50;15.20;;;;;;5053378;28;20097;-39
2022/04/15 01:49:42;;;;;;;24.42;14.07;;;17.50;15.20;;;;;;5054334;28;20020;-39
2022/04/15 01:52:08;;;;;;;23.15;14.00;;;17.50;15.30;;;;;;5057083;28;20070;-40
2022/04/15 01:54:34;;;;;;;24.17;13.45;;;17.50;15.60;;;;;;5074335;28;20421;-40
2022/04/15 01:56:59;;;;;;;17.55;12.93;;;17.40;15.80;;;;;;5072108;28;20037;-39
2022/04/15 01:59:25;;;;;;;24.77;13.88;;;17.40;16.10;;;;;;5043711;28;20033;-40
2022/04/15 02:01:54;;;;;;;25.60;12.88;;;17.30;16.30;;;;;;5053235;28;20045;-40
2022/04/15 02:04:22;;;;;;;26.65;13.55;;;17.40;16.20;;;;;;5054099;28;20032;-40
2022/04/15 02:06:48;;;;;;;23.50;13.00;;;17.30;16.10;;;;;;5053333;28;20044;-40
2022/04/15 02:09:14;;;;;;;25.15;13.02;;;17.30;16.90;;;;;;5068911;28;20029;-40
2022/04/15 02:11:39;;;;;;;21.25;13.82;;;17.40;16.20;;;;;;5035844;28;20029;-40
2022/04/15 02:14:05;;;;;;;26.70;13.32;;;17.40;16.30;;;;;;5069556;28;20040;-40
2022/04/15 02:16:30;;;;;;;23.38;13.85;;;17.40;16.00;;;;;;5072683;28;20024;-40
2022/04/15 02:18:56;;;;;;;24.42;13.15;;;17.40;15.90;;;;;;5055095;28;20041;-40
2022/04/15 02:21:22;;;;;;;23.63;14.68;;;17.30;16.20;;;;;;5053728;28;20041;-39
2022/04/15 02:23:47;;;;;;;22.90;13.70;;;17.30;15.90;;;;;;5052784;28;20033;-40
2022/04/15 02:26:19;;;;;;;23.80;15.13;;;17.40;15.70;;;;;;5051728;28;20056;-39
2022/04/15 02:28:45;;;;;;;26.58;15.15;;;17.50;15.20;;;;;;5066078;28;20039;-39
2022/04/15 02:31:10;;;;;;;25.13;15.35;;;17.50;14.90;;;;;;5073504;28;20029;-39
2022/04/15 02:33:36;;;;;;;25.70;16.08;;;17.50;14.70;;;;;;5060298;28;20112;-40
2022/04/15 02:36:02;;;;;;;26.00;15.65;;;17.50;14.50;;;;;;5053579;28;20021;-39
2022/04/15 02:38:28;;;;;;;22.08;14.68;;;17.40;14.90;;;;;;5062338;28;20434;-39
2022/04/15 02:40:54;;;;;;;26.38;15.73;;;17.40;14.50;;;;;;5073283;28;20079;-39
2022/04/15 02:43:20;;;;;;;20.05;14.60;;;17.40;14.50;;;;;;5063150;28;20123;-39
2022/04/15 02:45:46;;;;;;;24.92;15.15;;;17.40;14.40;;;;;;5053350;28;20040;-40
2022/04/15 02:48:13;;;;;;;23.70;14.80;;;17.40;14.30;;;;;;5059302;28;20024;-39
2022/04/15 02:50:39;;;;;;;24.45;15.45;;;17.40;14.30;;;;;;5072696;28;20449;-39
2022/04/15 02:53:05;;;;;;;28.17;16.45;;;17.40;14.50;;;;;;5065532;28;20057;-39
2022/04/15 02:55:31;;;;;;;21.58;14.32;;;17.40;14.50;;;;;;5063537;28;20048;-39
2022/04/15 02:57:57;;;;;;;24.42;15.32;;;17.30;14.60;;;;;;5054419;28;20037;-39
2022/04/15 03:00:23;;;;;;;23.63;15.10;;;17.30;14.70;;;;;;5053746;28;20041;-39
2022/04/15 03:02:48;;;;;;;25.40;15.52;;;17.30;14.60;;;;;;5056184;28;20462;-40
2022/04/15 03:05:14;;;;;;;25.23;15.60;;;17.30;14.50;;;;;;5073750;28;20034;-40
2022/04/15 03:07:40;;;;;;;27.20;16.10;;;17.20;14.80;;;;;;5051668;28;20104;-40
2022/04/15 03:10:07;;;;;;;26.95;16.00;;;17.20;14.70;;;;;;5034431;28;20105;-40
2022/04/15 03:12:34;;;;;;;23.13;15.73;;;17.10;14.70;;;;;;5035656;28;20018;-40
2022/04/15 03:15:00;;;;;;;23.48;15.57;;;18.30;19.10;;;;;;5073542;28;20145;-40
2022/04/15 03:17:26;;;;;;;28.05;16.40;;;17.20;20.40;;;;;;5071648;28;20020;-40
2022/04/15 03:19:52;;;;;;;25.40;16.23;;;17.10;15.00;;;;;;5053432;28;20040;-41
2022/04/15 03:22:17;;;;;;;20.67;13.95;;;17.10;15.10;;;;;;5052707;28;20047;-40
2022/04/15 03:24:43;;;;;;;23.95;15.77;;;17.00;15.20;;;;;;5071507;28;20111;-40
2022/04/15 03:27:10;;;;;;;27.75;16.50;;;17.00;15.20;;;;;;5073226;28;20124;-41
2022/04/15 03:29:36;;;;;;;26.48;16.13;;;17.00;15.30;;;;;;5053149;28;20021;-41
2022/04/15 03:32:02;;;;;;;29.25;16.60;;;17.00;15.30;;;;;;5053141;28;20385;-41
2022/04/15 03:34:27;;;;;;;25.52;16.48;;;16.90;15.80;;;;;;5068485;28;20121;-41
2022/04/15 03:36:53;;;;;;;25.67;15.77;;;16.80;15.90;;;;;;5073940;28;20077;-39
2022/04/15 03:39:19;;;;;;;21.73;15.95;;;16.80;16.00;;;;;;5056116;28;20033;-39
2022/04/15 03:41:44;;;;;;;25.05;16.52;;;16.70;16.00;;;;;;5053266;28;20037;-41
2022/04/15 03:44:10;;;;;;;24.50;15.75;;;16.80;16.10;;;;;;5052322;28;20068;-39
2022/04/15 03:46:38;;;;;;;24.67;16.80;;;16.70;16.30;;;;;;5052974;28;20029;-40
2022/04/15 03:49:04;;;;;;;22.63;17.08;;;16.70;16.10;;;;;;5052152;28;20028;-41
2022/04/15 03:51:30;;;;;;;23.67;17.15;;;16.70;16.40;;;;;;5053284;28;20032;-41
2022/04/15 03:53:56;;;;;;;23.35;17.00;;;16.60;16.20;;;;;;5051296;28;20037;-40
2022/04/15 03:56:21;;;;;;;26.67;17.27;;;16.60;16.50;;;;;;5052567;28;20467;-40
2022/04/15 03:58:47;;;;;;;22.05;17.23;;;16.60;16.50;;;;;;5061613;28;20466;-41
2022/04/15 04:01:13;;;;;;;27.30;18.33;;;16.60;16.40;;;;;;5072537;28;20066;-40
2022/04/15 04:03:38;;;;;;;25.23;16.95;;;16.60;16.60;;;;;;5061846;28;20075;-40
2022/04/15 04:06:04;;;;;;;23.52;16.88;;;16.50;16.70;;;;;;5052615;28;20029;-40
2022/04/15 04:08:30;;;;;;;24.63;15.80;;;16.50;16.60;;;;;;5050530;28;20039;-40
2022/04/15 04:10:55;;;;;;;30.02;17.50;;;16.50;16.90;;;;;;5052309;28;20111;-39
2022/04/15 04:13:22;;;;;;;26.63;17.42;;;16.40;17.10;;;;;;5051268;28;20047;-40
2022/04/15 04:15:48;;;;;;;24.80;16.40;;;16.40;17.00;;;;;;5052124;28;20340;-40
2022/04/15 04:18:14;;;;;;;25.45;16.02;;;16.50;18.20;;;;;;5033225;28;20028;-39
2022/04/15 04:20:41;;;;;;;23.92;16.35;;;16.50;20.10;;;;;;5034268;28;20041;-39
2022/04/15 04:23:07;;;;;;;24.83;16.23;;;16.40;17.20;;;;;;5050449;28;20036;-39
2022/04/15 04:25:33;;;;;;;20.80;15.32;;;16.30;17.00;;;;;;5052264;28;20036;-40
2022/04/15 04:27:58;;;;;;;20.48;16.67;;;16.40;19.80;;;;;;5053546;28;20033;-40
2022/04/15 04:30:24;;;;;;;24.08;16.13;;;16.40;19.40;;;;;;5072454;28;20426;-40
2022/04/15 04:32:50;;;;;;;27.58;16.88;;;16.30;17.50;;;;;;5069266;28;20039;-40
2022/04/15 04:35:20;;;;;;;22.40;15.95;;;16.40;18.30;;;;;;5052308;28;20020;-40
2022/04/15 04:37:46;;;;;;;26.45;15.77;;;16.40;20.90;;;;;;5051020;28;20036;-39
2022/04/15 04:40:13;;;;;;;21.17;15.07;;;16.30;19.10;;;;;;5051691;28;20450;-39
2022/04/15 04:42:40;;;;;;;22.63;15.20;;;16.40;19.70;;;;;;5051017;28;20032;-40
2022/04/15 04:45:06;;;;;;;20.85;16.13;;;16.30;20.40;;;;;;5033855;28;20032;-40
2022/04/15 04:47:32;;;;;;;21.75;16.05;;;16.30;18.10;;;;;;5043727;28;20025;-40
2022/04/15 04:50:01;;;;;;;21.10;14.85;;;16.20;17.50;;;;;;5049695;28;20071;-40
2022/04/15 04:52:26;;;;;;;21.98;14.82;;;16.30;23.20;;;;;;5050240;28;20057;-40
2022/04/15 04:54:52;;;;;;;20.08;15.00;;;16.20;17.10;;;;;;5059269;28;20044;-40
2022/04/15 04:57:18;;;;;;;24.15;15.23;;;16.20;17.30;;;;;;5062844;28;20461;-40
2022/04/15 04:59:43;;;;;;;25.67;16.73;;;16.20;17.50;;;;;;5053835;28;20033;-40
2022/04/15 05:02:12;;;;;;;21.42;14.70;;;16.20;17.70;;;;;;5051805;28;20073;-40
2022/04/15 05:04:39;;;;;;;24.25;15.10;;;16.20;17.70;;;;;;5066005;28;20033;-40
2022/04/15 05:07:05;;;;;;;23.30;15.27;;;16.30;18.30;;;;;;5071966;28;20025;-40
2022/04/15 05:09:31;;;;;;;19.58;14.50;;;16.20;18.20;;;;;;5038219;28;20036;-39
2022/04/15 05:11:57;;;;;;;21.55;15.18;;;16.20;17.60;;;;;;5051699;28;20067;-40
2022/04/15 05:14:23;;;;;;;24.10;16.00;;;;;;;;;;5063410;28;20035;-40
2022/04/15 05:16:48;;;;;;;21.50;15.85;;;16.00;16.00;;;;;;5071968;28;20078;-40
2022/04/15 05:19:14;;;;;;;18.10;14.40;;;16.00;16.60;;;;;;5068442;28;20339;-40
2022/04/15 05:21:40;;;;;;;23.13;14.35;;;16.10;16.80;;;;;;5071670;28;20063;-40
2022/04/15 05:24:09;;;;;;;21.33;15.02;;;16.10;16.50;;;;;;5060195;28;20036;-40
2022/04/15 05:26:36;;;;;;;19.08;14.68;;;16.10;16.60;;;;;;5052014;28;20476;-41
2022/04/15 05:29:03;;;;;;;23.50;15.82;;;16.10;16.50;;;;;;5041939;28;20029;-41
2022/04/15 05:31:29;;;;;;;19.25;15.25;;;16.10;16.50;;;;;;5071708;28;20116;-40
2022/04/15 05:33:55;;;;;;;21.92;15.20;;;16.10;16.50;;;;;;5062345;28;20060;-41
2022/04/15 05:36:20;;;;;;;23.23;15.85;;;16.00;16.50;;;;;;5051614;28;20033;-41
2022/04/15 05:38:46;;;;;;;21.23;14.98;;;16.10;16.50;;;;;;5039107;28;20021;-40
2022/04/15 05:41:11;;;;;;;23.90;15.45;;;16.10;16.50;;;;;;5053481;28;20126;-40
2022/04/15 05:43:37;;;;;;;20.92;14.57;;;16.20;16.40;;;;;;5064807;28;20028;-40
2022/04/15 05:46:03;;;;;;;19.95;14.77;;;16.20;16.10;;;;;;5051556;28;20044;-41
2022/04/15 05:48:29;;;;;;;18.30;14.20;;;16.10;16.00;;;;;;5053132;28;20034;-40
2022/04/15 05:50:55;;;;;;;19.38;14.00;;;16.10;16.10;;;;;;5071610;28;20225;-40
2022/04/15 05:53:21;;;;;;;21.92;14.68;;;16.10;16.00;;;;;;5072153;28;20028;-40
2022/04/15 05:55:46;;;;;;;21.83;14.85;;;16.10;16.00;;;;;;5057042;28;20213;-40
2022/04/15 05:58:12;;;;;;;22.52;14.60;;;16.20;16.00;;;;;;5072887;28;20024;-41
2022/04/15 06:00:38;;;;;;;19.77;14.93;;;16.20;15.80;;;;;;5055036;28;20130;-40
2022/04/15 06:03:04;;;;;;;23.60;15.65;;;16.20;15.70;;;;;;5055498;28;20060;-40
2022/04/15 06:05:30;;;;;;;21.63;15.05;;;16.20;15.90;;;;;;5054481;28;20025;-40
2022/04/15 06:07:58;;;;;;;18.60;14.27;;;16.20;15.60;;;;;;5054982;28;20021;-41
2022/04/15 06:10:24;;;;;;;20.45;13.95;;;16.10;15.40;;;;;;5053900;28;20079;-41
2022/04/15 06:13:09;;;;;;;22.38;14.55;;;16.10;15.50;;;;;;5036740;28;20025;-40
2022/04/15 06:15:41;;;;;;;17.15;13.35;;;16.10;15.40;;;;;;5073609;28;20024;-40
2022/04/15 06:18:07;;;;;;;19.42;14.32;;;16.20;15.60;;;;;;5040859;28;20032;-40
2022/04/15 06:20:34;;;;;;;24.63;15.27;;;16.20;15.40;;;;;;5053717;28;20124;-40
2022/04/15 06:23:00;;;;;;;21.58;13.68;;;16.30;15.30;;;;;;5053916;28;20029;-41
2022/04/15 06:25:26;;;;;;;22.55;15.00;;;16.30;15.20;;;;;;5069756;28;20032;-40
2022/04/15 06:27:54;;;;;;;25.42;15.43;;;16.40;15.10;;;;;;5074338;28;20043;-40
2022/04/15 06:30:21;;;;;;;20.50;13.68;;;16.40;15.30;;;;;;5056136;28;20447;-40
2022/04/15 06:32:47;;;;;;;21.63;15.88;;;16.50;15.30;;;;;;5053974;28;20087;-40
2022/04/15 06:35:13;;;;;;;22.00;15.35;;;16.60;15.00;;;;;;5050522;28;20040;-40
2022/04/15 06:37:39;;;;;;;22.48;15.13;;;16.50;14.90;;;;;;5074288;28;20394;-40
2022/04/15 06:40:05;;;;;;;23.45;16.17;;;16.50;14.90;;;;;;5058541;28;20037;-41
2022/04/15 06:42:31;;;;;;;22.85;15.65;;;16.60;15.00;;;;;;5053858;28;20025;-40
2022/04/15 06:44:59;;;;;;;23.45;16.02;;;16.60;14.80;;;;;;5051380;28;20618;-40
2022/04/15 06:47:24;;;;;;;24.05;17.25;;;16.60;14.90;;;;;;5074098;28;20020;-40
2022/04/15 06:49:50;;;;;;;27.48;16.88;;;16.60;14.90;;;;;;5072208;28;20027;-42
2022/04/15 06:52:18;;;;;;;23.27;16.90;;;16.70;14.90;;;;;;5074026;28;20063;-40
2022/04/15 06:54:43;;;;;;;26.23;17.48;;;16.70;14.90;;;;;;5065718;28;20024;-41
2022/04/15 06:57:12;;;;;;;24.58;16.48;;;16.80;15.00;;;;;;5054011;28;20564;-40
2022/04/15 06:59:37;;;;;;;25.05;16.10;;;16.80;15.00;;;;;;5052958;28;20042;-41
2022/04/15 07:02:04;;;;;;;22.48;16.23;;;16.80;14.00;;;;;;5054414;28;20052;-40
2022/04/15 07:04:32;;;;;;;23.00;15.70;;;16.80;14.40;;;;;;5059147;28;20470;-41
2022/04/15 07:06:58;;;;;;;24.58;16.13;;;16.80;14.20;;;;;;5055733;28;20040;-40
2022/04/15 07:09:24;;;;;;;27.65;17.50;;;16.80;14.80;;;;;;5064683;28;20382;-40
2022/04/15 07:11:50;;;;;;;26.60;17.85;;;17.00;14.80;;;;;;5052978;28;20025;-40
2022/04/15 07:14:16;;;;;;;24.27;16.98;;;17.00;14.50;;;;;;5052442;28;20140;-40
2022/04/15 07:16:42;;;;;;;21.58;16.67;;;17.10;14.30;;;;;;5053537;28;20025;-40
2022/04/15 07:19:08;;;;;;;23.10;16.23;;;17.10;14.40;;;;;;5055430;28;20116;-40
2022/04/15 07:21:34;;;;;;;24.90;17.40;;;17.20;13.80;;;;;;5032004;28;20124;-40
2022/04/15 07:24:00;;;;;;;21.42;16.90;;;17.10;14.00;;;;;;5019324;28;20032;-40
2022/04/15 07:26:26;;;;;;;23.42;16.17;;;17.20;13.60;;;;;;5053939;28;20016;-40
2022/04/15 07:28:52;;;;;;;20.23;15.27;;;17.20;13.40;;;;;;5054638;28;20129;-40
2022/04/15 07:31:17;;;;;;;24.50;15.80;;;17.30;13.40;;;;;;5073197;28;20059;-41
2022/04/15 07:33:46;;;;;;;27.30;17.35;;;17.30;13.40;;;;;;5070390;28;20449;-41
2022/04/15 07:38:56;;;;;;;24.30;16.95;;;17.40;13.20;;;;;;5054862;28;20047;-40
2022/04/15 07:41:22;;;;;;;25.63;17.13;;;17.50;13.00;;;;;;5071395;28;20037;-40
2022/04/15 07:43:50;;;;;;;24.02;16.70;;;17.60;12.80;;;;;;5070772;28;20039;-40
2022/04/15 07:46:16;;;;;;;23.45;16.55;;;17.60;12.70;;;;;;5073100;28;20031;-40
2022/04/15 07:48:42;;;;;;;26.00;16.98;;;17.60;12.50;;;;;;5055683;28;20060;-40
2022/04/15 07:51:08;;;;;;;25.20;17.67;;;17.70;12.00;;;;;;5072855;28;20067;-41
2022/04/15 07:53:34;;;;;;;23.55;16.67;;;17.70;11.50;;;;;;5073147;28;20029;-40
2022/04/15 07:56:00;;;;;;;27.15;18.33;;;17.80;11.80;;;;;;5034184;28;20107;-40
2022/04/15 07:58:25;;;;;;;25.02;17.27;;;17.80;11.90;;;;;;5053085;28;20353;-40
2022/04/15 08:00:51;;;;;;;26.70;18.02;;;17.90;11.80;;;;;;5051810;28;20098;-40
2022/04/15 08:03:20;;;;;;;24.45;16.20;;;17.90;11.80;;;;;;5044925;28;20036;-40
2022/04/15 08:05:49;;;;;;;26.00;17.85;;;18.00;11.80;;;;;;5051775;28;20033;-40
2022/04/15 08:08:15;;;;;;;26.88;16.42;;;18.00;11.70;;;;;;5054141;28;20052;-41
2022/04/15 08:10:41;;;;;;;26.13;17.98;;;18.00;11.40;;;;;;5070456;28;20504;-40
2022/04/15 08:13:07;;;;;;;28.58;17.88;;;18.10;11.30;;;;;;5072327;28;20151;-40
2022/04/15 08:15:33;;;;;;;30.90;20.15;;;18.10;11.50;;;;;;5056139;28;20451;-39
2022/04/15 08:17:59;;;;;;;39.15;19.00;;;18.20;11.50;;;;;;5052412;28;20024;-40
2022/04/15 08:20:25;;;;;;;30.63;18.90;;;18.20;11.10;;;;;;5064239;28;20029;-39
2022/04/15 08:22:50;;;;;;;30.00;18.77;;;18.20;10.90;;;;;;5072111;28;20055;-40
2022/04/15 08:25:16;;;;;;;27.40;17.73;;;18.30;10.90;;;;;;5052590;28;20078;-39
2022/04/15 08:27:42;;;;;;;27.60;19.17;;;18.30;10.90;;;;;;5072541;28;20031;-40
2022/04/15 08:30:08;;;;;;;32.95;19.65;;;18.40;11.00;;;;;;5052436;28;20142;-40
2022/04/15 08:32:34;;;;;;;27.02;18.85;;;18.40;10.80;;;;;;5054114;28;20032;-40
2022/04/15 08:35:04;;;;;;;29.85;19.50;;;18.50;10.90;;;;;;5068882;28;20020;-40
2022/04/15 08:37:30;;;;;;;31.50;21.10;;;18.50;11.00;;;;;;5057734;28;20108;-41
2022/04/15 08:39:56;;;;;;;29.45;18.50;;;18.60;10.80;;;;;;5050149;28;20449;-40
2022/04/15 08:42:22;;;;;;;29.85;19.33;;;18.60;10.70;;;;;;5050969;28;20390;-41
2022/04/15 08:44:50;;;;;;;27.55;18.58;;;18.70;10.70;;;;;;5051863;28;20033;-40
2022/04/15 08:47:17;;;;;;;33.58;19.35;;;18.80;10.50;;;;;;5030634;28;20178;-39
2022/04/15 08:49:42;;;;;;;33.67;19.92;;;18.90;10.50;;;;;;5056882;28;20028;-39
2022/04/15 08:52:09;;;;;;;33.10;19.77;;;18.90;10.50;;;;;;5067581;28;20084;-39
2022/04/15 08:54:35;;;;;;;27.13;19.30;;;19.00;10.20;;;;;;5054446;28;20059;-39
2022/04/15 08:57:01;;;;;;;30.90;19.15;;;19.00;10.10;;;;;;5071844;28;20056;-40
2022/04/15 08:59:27;;;;;;;35.95;19.88;;;19.00;10.10;;;;;;5040585;28;20348;-40
2022/04/15 09:01:52;;;;;;;37.08;21.25;;;19.10;10.20;;;;;;5055739;28;20585;-40
2022/04/15 09:04:18;;;;;;;32.30;20.13;;;19.20;9.60;;;;;;5066835;28;20359;-40
2022/04/15 09:06:44;;;;;;;35.05;20.73;;;19.20;9.70;;;;;;5051258;28;20071;-40
2022/04/15 09:09:12;;;;;;;33.42;20.75;;;19.20;9.70;;;;;;5051061;28;20021;-40
2022/04/15 09:11:40;;;;;;;34.65;20.27;;;19.20;9.60;;;;;;5063236;28;20032;-40
2022/04/15 09:14:11;;;;;;;30.92;19.67;;;19.30;9.50;;;;;;5052292;28;20025;-40
2022/04/15 09:16:42;;;;;;;31.80;19.50;;;19.40;9.20;;;;;;5031826;28;20040;-40
2022/04/15 09:19:08;;;;;;;29.40;19.65;;;;;;;;;;5013730;28;20044;-40
2022/04/15 09:21:35;;;;;;;34.47;20.65;;;19.50;9.00;;;;;;5029470;28;20099;-39
2022/04/15 09:24:01;;;;;;;34.78;20.50;;;19.60;9.00;;;;;;5030817;28;20219;-39
2022/04/15 09:26:27;;;;;;;33.33;20.30;;;19.60;8.90;;;;;;5050098;28;20485;-40
2022/04/15 09:28:54;;;;;;;33.97;22.10;;;19.60;9.10;;;;;;5036042;28;20047;-40
2022/04/15 09:31:22;;;;;;;32.70;21.50;;;19.60;9.00;;;;;;5053172;28;20451;-39
2022/04/15 09:33:54;;;;;;;37.53;22.15;;;19.70;8.60;;;;;;5053052;28;20029;-39
2022/04/15 09:36:37;;;;;;;33.20;21.52;;;19.80;8.90;;;;;;5056485;28;20093;-39
2022/04/15 09:39:10;;;;;;;37.30;21.83;;;19.90;9.10;;;;;;5055904;28;20421;-41
2022/04/15 09:41:55;;;;;;;35.72;21.05;;;20.10;13.20;;;;;;5063252;28;20028;-40
2022/04/15 09:44:22;;;;;;;38.53;20.88;;;20.00;8.90;;;;;;5056965;28;20056;-40
2022/04/15 09:46:51;;;;;;;37.53;21.60;;;20.20;8.70;;;;;;5065732;28;20541;-40
2022/04/15 09:49:17;;;;;;;33.78;20.77;;;20.30;11.90;;;;;;5074161;28;20060;-40
2022/04/15 09:51:52;;;;;;;33.97;21.25;;;20.20;9.00;;;;;;5072741;28;20049;-40
2022/04/15 09:54:26;;;;;;;32.20;20.13;;;20.20;8.70;;;;;;5074572;28;20086;-40
2022/04/15 09:56:54;;;;;;;31.13;19.58;;;20.30;8.90;;;;;;5042869;28;20094;-40
2022/04/15 09:59:24;;;;;;;31.55;20.65;;;20.50;9.00;;;;;;5072824;28;20382;-40
2022/04/15 10:02:04;;;;;;;30.65;20.48;;;20.50;8.80;;;;;;5059835;28;20029;-40
2022/04/15 10:04:31;;;;;;;38.05;22.13;;;20.70;11.00;;;;;;5062561;28;20381;-40
2022/04/15 10:07:00;;;;;;;30.73;20.42;;;20.60;8.30;;;;;;5074932;28;20033;-40
2022/04/15 10:09:27;;;;;;;35.85;22.88;;;20.80;8.10;;;;;;5060507;28;20497;-40
2022/04/15 10:11:54;;;;;;;35.33;21.40;;;20.80;7.90;;;;;;5054657;28;20107;-40
2022/04/15 10:14:21;;;;;;;31.48;20.40;;;20.80;7.80;;;;;;5054922;28;20469;-40
2022/04/15 10:16:47;;;;;;;37.80;21.58;;;20.90;7.70;;;;;;5061774;28;20339;-40
2022/04/15 10:19:12;;;;;;;34.08;22.67;;;21.00;7.90;;;;;;5037733;28;20025;-40
2022/04/15 10:21:51;;;;;;;34.83;21.25;;;21.10;8.30;;;;;;5072488;28;20033;-40
2022/04/15 10:24:17;;;;;;;37.92;22.52;;;21.10;8.30;;;;;;5073191;28;20077;-40
2022/04/15 10:26:44;;;;;;;32.58;23.23;;;21.20;8.80;;;;;;5069332;28;20024;-40
2022/04/15 10:29:10;;;;;;;34.65;22.83;;;21.20;8.50;;;;;;5056487;28;20024;-40
2022/04/15 10:31:44;;;;;;;34.10;23.67;;;21.30;9.00;;;;;;5050584;28;20090;-37
2022/04/15 10:34:12;;;;;;;36.05;21.83;;;21.50;11.30;;;;;;5054077;28;20112;-40
2022/04/15 10:36:43;;;;;;;33.60;21.85;;;21.40;6.50;;;;;;5053079;28;20048;-40
2022/04/15 10:39:09;;;;;;;35.88;21.02;;;21.40;7.20;;;;;;5033204;28;20356;-40
2022/04/15 10:41:41;;;;;;;38.28;24.90;;;21.40;7.20;;;;;;5065643;28;20059;-40
2022/04/15 10:44:23;;;;;;;37.55;25.33;;;21.60;7.00;;;;;;5074770;28;20020;-40
2022/04/15 10:46:48;;;;;;;35.60;22.98;;;21.70;7.30;;;;;;5070343;28;20032;-40
2022/04/15 10:49:23;;;;;;;36.55;24.30;;;21.70;7.00;;;;;;5052105;28;20494;-41
2022/04/15 10:51:51;;;;;;;36.45;23.80;;;21.80;6.70;;;;;;5064392;28;20021;-38
2022/04/15 10:54:45;;;;;;;39.25;24.33;;;21.90;6.70;;;;;;5053529;28;20036;-38
2022/04/15 10:57:18;;;;;;;40.30;25.08;;;22.10;6.60;;;;;;5072446;28;20079;-39
2022/04/15 11:02:44;;;;;;;35.63;24.25;;;22.20;6.70;;;;;;5039897;28;20506;-39
2022/04/15 11:05:11;;;;;;;39.88;25.13;;;22.20;7.10;;;;;;5037679;28;20564;-39
2022/04/15 11:07:43;;;;;;;34.00;24.08;;;22.30;6.90;;;;;;5072059;28;20164;-39
2022/04/15 11:10:28;;;;;;;38.80;25.52;;;;;;;;;;5067123;28;20029;-39
2022/04/15 11:12:54;;;;;;;37.17;24.73;;;22.70;4.80;;;;;;5051997;28;20521;-39
2022/04/15 11:16:13;;;;;;;38.80;26.55;;;22.50;6.10;;;;;;5036771;28;20028;-39
2022/04/15 11:18:52;;;;;;;43.08;26.27;;;22.70;5.30;;;;;;5038218;28;20048;-39
2022/04/15 11:21:22;;;;;;;37.70;23.70;;;;;;;;;;5066364;28;20043;-39
2022/04/15 11:23:52;;;;;;;39.30;24.75;;;22.90;4.70;;;;;;5051471;28;20048;-39
2022/04/15 11:26:19;;;;;;;38.60;24.58;;;23.10;5.20;;;;;;5062832;28;20020;-39
2022/04/15 11:28:46;;;;;;;41.60;26.42;;;23.10;4.60;;;;;;5072070;28;20113;-39
2022/04/15 11:31:39;;;;;;;38.65;25.17;;;23.20;4.40;;;;;;5062842;28;20096;-39
2022/04/15 11:34:16;;;;;;;37.70;23.50;;;23.20;3.60;;;;;;5030348;28;20041;-40
2022/04/15 11:36:49;;;;;;;38.53;20.27;;;;;;;;;;5069482;28;20066;-39
2022/04/15 11:39:16;;;;;;;41.70;25.23;;;23.40;3.40;;;;;;5072158;28;20024;-39
2022/04/15 11:41:52;;;;;;;39.25;24.58;;;23.40;4.10;;;;;;5037916;28;20421;-71
2022/04/15 11:44:19;;;;;;;38.28;26.17;;;;;;;;;;5063121;28;20029;-71
2022/04/15 11:46:46;;;;;;;38.00;26.55;;;;;;;;;;5050569;28;20103;-72
2022/04/15 11:49:32;;;;;;;40.75;26.70;;;;;;;;;;5041340;28;20032;-72
2022/04/15 11:51:59;;;;;;;44.17;28.88;;;;;;;;;;5068177;28;20078;-70
2022/04/15 11:54:32;;;;;;;38.60;25.10;;;24.20;1.80;;;;;;5072947;28;20032;-70
2022/04/15 11:57:00;;;;;;;39.38;25.63;;;24.40;2.10;;;;;;5070833;28;20132;-71
2022/04/15 11:59:26;;;;;;;36.80;24.17;;;24.60;1.90;;;;;;5072896;28;20031;-72
2022/04/15 12:01:54;;;;;;;42.00;24.95;;;24.60;2.10;;;;;;5055987;28;20041;-71
2022/04/15 12:04:21;;;;;;;39.80;26.55;;;24.80;2.00;;;;;;5052916;28;20387;-71
2022/04/15 12:06:47;;;;;;;39.42;26.02;;;25.40;1.80;;;;;;5066144;28;20163;-71
2022/04/15 12:09:15;;;;;;;40.85;27.17;;;26.70;1.00;;;;;;5071248;28;20025;-72
2022/04/15 12:11:41;;;;;;;37.40;25.00;;;27.30;1.00;;;;;;5070812;28;20043;-72
2022/04/15 12:14:08;;;;;;;41.60;28.13;;;28.10;1.00;;;;;;5068904;28;20023;-71
2022/04/15 12:16:38;;;;;;;40.33;28.35;;;28.60;1.00;;;;;;5062884;28;20032;-72
2022/04/15 12:19:04;;;;;;;39.65;28.30;;;28.90;8.80;;;;;;5071440;28;20056;-71
2022/04/15 12:21:32;;;;;;;40.55;28.10;;;29.00;3.40;;;;;;5047809;28;20042;-73
2022/04/15 12:24:01;;;;;;;40.25;28.23;;;;;;;;;;5058579;28;20029;-72
2022/04/15 12:26:27;;;;;;;36.47;27.02;;;31.60;1.00;;;;;;5070840;28;20028;-72
2022/04/15 12:31:47;;;;;;;35.90;28.13;;;;;;;;;;5057538;28;20082;-71
2022/04/15 12:34:14;;;;;;;38.70;28.00;;;;;;;;;;5052746;28;20025;-73
2022/04/15 12:36:40;;;;;;;39.92;29.50;;;;;;;;;;5063899;28;20029;-72
2022/04/15 12:39:07;;;;;;;39.15;28.83;;;37.30;1.00;;;;;;5072420;28;20017;-71
2022/04/15 12:41:42;;;;;;;40.20;29.75;;;;;;;;;;5058018;28;20033;-72
2022/04/15 12:44:19;;;;;;;41.00;31.13;;;39.50;1.00;;;;;;5050318;28;20440;-71